Eliporto militare marina italiana

IT-0603 · 普利亚, 意大利

使用的METAR站距离机场48 km。
罗盘
风向 的 风向 330° 直升机
风: 8 kt, 3 beaufort
0 ft 1.000 2.000 3.000 4.000 5.000
CAVOK
METAR LIBR 180350Z 33008KT CAVOK 28/23 Q1013

METAR Eliporto militare marina italiana - IT-0603

Eliporto militare marina italiana是,意大利中的直升机场。 该机场位于纬度40,51561和经度17,40803。 这个机场没有ICAO代码,我们使用IT-0603作为参考。 机场在Brindisi FIR中。

该航空气象观测是针对Brindisi – Salento Airport在2024年7月18日 05:50, 当地时间进行的。

机场观察

风向为330°,速度为8 kt。

天气为CAVOK。这意味着在5.000 ft或MSA(最低安全高度)以下(以较高者为准)以下没有云。这也意味着没有观测到积雨云或高耸的积云,可见度为10 km 或者更多或更高。此外,不会有雾,降雨或其他重要天气。

温度和风寒是28 °C。 热指数为31。 露点为23 °C,相对湿度为74%。 海平面上的气压为1013 hPa (QNH)。

白天

今天,太阳从05:35升起,在20:17降落。 这适用于Eliporto militare marina italiana,世界夏令时可能有所不同。 当地时间与世界标准时间之间的时差为+2 小时。 夏令时目前正在进行中。

公司介绍

我们没有关于这个机场的公司信息。

体会

到Vliegles.nl去找飞行课程,跳伞和其他飞行体验。 浏览页面,了解Eliporto militare marina italiana附近所有可用的活动。 你也可以使用搜索功能来寻找你所在地附近的特定飞行课程、跳伞或其他飞行体验。

温度 & 天气

温度 28 °C
露点 23 °C
相对湿度 74%
热度指数 31 °C
Kp-index 0 (0-9)

白天

日出
05:32
中午
12:54
日落
20:16 (13:46)

小工具

你想在你的网站上有一个关于Eliporto militare marina italiana的当前航空天气(METAR)的小部件吗?

显示HTML代码
报告变更